If you wish to contribute or participate in the discussions about articles you are invited to join SKYbrary as a registered user

 Actions

Batumi International Airport

From SKYbrary Wiki

UGSB
Airport
ICAO: UGSB – IATA: BUS
Summary
Name Batumi International Airport
Region Asia and Pacific
Territory Georgia GE.gif
Location Batumi
Serving Batumi
Elevation 32 m
104.987 ft
104.987 ft32 m
Coordinates 41° 36' 37.00" N, 41° 35' 58.90" E
Runways
Designator Length Width Surface ROPS
13/31 2233 m7,326.115 ft
46 m150.919 ft
ASP /


METAR
Observation UGSB 221600Z 23009KT 9999 -SHRA BKN022CB OVC095 08/06 Q1027 R13/2///55 NOSIG
Station BATUMI
Date/Time 22 March 2019 16:00:00
Wind direction 230°
Wind speed 09 kts
Lowest cloud amount broken clouds
Temperature 8°C
Dew point 6°C
Humidity 87%
QNH 1027 hPa
Weather condition light showers rain

Description

Batumi International Airport is an airport located 2 km south of Batumi, a city on the Black Sea coast and capital of Adjara, an autonomous republic in southwest Georgia. The airport is 20 km northeast of Hopa, Turkey, and serves as a domestic and international airport for Georgia and northeastern Turkey.